createdAt,value
2018-09-27T00:00:25.195Z,97583.63
2018-09-27T00:02:53.839Z,97583.08
2018-09-27T00:05:23.159Z,97586.48
2018-09-27T00:07:52.624Z,97584.77
2018-09-27T00:10:21.484Z,97586.30
2018-09-27T00:12:50.200Z,97581.84
2018-09-27T00:15:18.844Z,97572.94
2018-09-27T00:17:47.392Z,97577.50
2018-09-27T00:20:15.996Z,97569.19
2018-09-27T00:22:44.729Z,97561.92
2018-09-27T00:25:13.303Z,97563.96
2018-09-27T00:27:41.852Z,97562.61
2018-09-27T00:30:10.738Z,97557.62
2018-09-27T00:32:39.263Z,97556.74
2018-09-27T00:35:07.575Z,97563.89
2018-09-27T00:37:36.172Z,97560.50
2018-09-27T00:40:04.836Z,97554.95
2018-09-27T00:42:33.416Z,97559.55
2018-09-27T00:45:02.027Z,97551.70
2018-09-27T00:47:30.700Z,97552.66
2018-09-27T00:49:59.378Z,97553.24
2018-09-27T00:52:27.960Z,97551.78
2018-09-27T00:54:56.527Z,97552.44
2018-09-27T00:57:25.152Z,97553.20
2018-09-27T00:59:53.689Z,97557.73
2018-09-27T01:02:22.227Z,97557.66
2018-09-27T01:04:50.788Z,97560.83
2018-09-27T01:07:19.352Z,97559.48
2018-09-27T01:09:48.008Z,97558.20
2018-09-27T01:12:16.576Z,97564.59
2018-09-27T01:14:45.113Z,97560.21
2018-09-27T01:17:13.699Z,97569.44
2018-09-27T01:19:43.090Z,97565.52
2018-09-27T01:22:11.835Z,97566.11
2018-09-27T01:24:40.355Z,97561.41
2018-09-27T01:27:09.014Z,97559.84
2018-09-27T01:29:37.592Z,97565.64
2018-09-27T01:32:06.136Z,97566.41
2018-09-27T01:34:34.807Z,97556.75
2018-09-27T01:37:03.384Z,97572.13
2018-09-27T01:39:31.905Z,97572.38
2018-09-27T01:42:00.452Z,97565.27
2018-09-27T01:44:29.072Z,97557.43
2018-09-27T01:46:57.633Z,97558.75
2018-09-27T01:49:26.458Z,97558.60
2018-09-27T01:51:55.004Z,97561.02
2018-09-27T01:54:23.683Z,97558.16
2018-09-27T01:56:52.217Z,97563.23
2018-09-27T01:59:20.784Z,97559.70
2018-09-27T02:01:49.342Z,97567.57
2018-09-27T02:04:17.888Z,97567.52
2018-09-27T02:06:46.446Z,97560.38
2018-09-27T02:09:15.036Z,97559.47
2018-09-27T02:11:43.659Z,97554.36
2018-09-27T02:14:12.204Z,97556.91
2018-09-27T02:16:40.875Z,97551.38
2018-09-27T02:19:09.408Z,97550.67
2018-09-27T02:24:27.972Z,97550.44
2018-09-27T02:26:56.520Z,97548.03
2018-09-27T02:29:25.064Z,97550.70
2018-09-27T02:31:53.596Z,97547.64
2018-09-27T02:34:22.145Z,97542.48
2018-09-27T02:36:50.724Z,97542.28
2018-09-27T02:39:19.377Z,97540.86
2018-09-27T02:41:47.918Z,97538.70
2018-09-27T02:44:16.475Z,97534.36
2018-09-27T02:46:45.016Z,97530.87
2018-09-27T02:49:13.681Z,97529.52
2018-09-27T02:51:42.256Z,97531.42
2018-09-27T02:54:10.816Z,97529.13
2018-09-27T02:56:39.369Z,97524.67
2018-09-27T02:59:08.000Z,97527.09
2018-09-27T03:01:36.545Z,97519.50
2018-09-27T03:04:05.111Z,97519.09
2018-09-27T03:06:33.653Z,97523.11
2018-09-27T03:09:02.168Z,97522.53
2018-09-27T03:11:30.739Z,97527.97
2018-09-27T03:13:59.279Z,97521.54
2018-09-27T03:16:27.799Z,97524.60
2018-09-27T03:18:56.340Z,97524.97
2018-09-27T03:21:24.871Z,97527.70
2018-09-27T03:23:53.431Z,97522.72
2018-09-27T03:26:21.976Z,97515.42
2018-09-27T03:28:50.563Z,97507.58
2018-09-27T03:31:19.125Z,97511.48
2018-09-27T03:33:47.706Z,97512.80
2018-09-27T03:36:16.425Z,97510.20
2018-09-27T03:38:44.984Z,97504.48
2018-09-27T03:41:13.544Z,97509.17
2018-09-27T03:43:42.298Z,97505.67
2018-09-27T03:46:11.614Z,97498.38
2018-09-27T03:48:40.244Z,97497.19
2018-09-27T03:51:08.824Z,97492.41
2018-09-27T03:53:37.420Z,97490.36
2018-09-27T03:56:06.068Z,97485.50
2018-09-27T03:58:34.604Z,97477.38
2018-09-27T04:01:03.156Z,97471.12
2018-09-27T04:03:31.712Z,97460.12
2018-09-27T04:06:00.267Z,97465.66
2018-09-27T04:08:28.808Z,97465.91
2018-09-27T04:10:57.501Z,97471.23
2018-09-27T04:13:26.060Z,97474.66
2018-09-27T04:15:54.713Z,97486.25
2018-09-27T04:18:23.438Z,97481.26
2018-09-27T04:20:52.867Z,97480.97
2018-09-27T04:23:24.303Z,97482.60
2018-09-27T04:25:53.039Z,97480.16
2018-09-27T04:28:22.213Z,97487.52
2018-09-27T04:30:50.808Z,97489.63
2018-09-27T04:33:19.389Z,97492.04
2018-09-27T04:35:48.012Z,97491.71
2018-09-27T04:38:16.567Z,97493.45
2018-09-27T04:40:45.166Z,97489.86
2018-09-27T04:43:13.839Z,97491.13
2018-09-27T04:45:42.456Z,97489.86
2018-09-27T04:48:11.091Z,97492.30
2018-09-27T04:50:39.621Z,97493.06
2018-09-27T04:53:08.164Z,97494.19
2018-09-27T04:55:36.788Z,97493.38
2018-09-27T04:58:05.359Z,97491.27
2018-09-27T05:00:33.883Z,97498.48
2018-09-27T05:03:02.427Z,97488.94
2018-09-27T05:05:30.984Z,97497.90
2018-09-27T05:07:59.529Z,97494.98
2018-09-27T05:10:28.060Z,97491.67
2018-09-27T05:12:56.615Z,97488.53
2018-09-27T05:15:25.236Z,97493.20
2018-09-27T05:17:53.743Z,97497.55
2018-09-27T05:20:23.199Z,97499.09
2018-09-27T05:22:51.808Z,97497.81
2018-09-27T05:25:20.347Z,97498.55
2018-09-27T05:27:48.896Z,97500.16
2018-09-27T05:30:17.523Z,97501.73
2018-09-27T05:32:46.060Z,97505.95
2018-09-27T05:35:14.637Z,97504.98
2018-09-27T05:37:43.207Z,97512.05
2018-09-27T05:40:11.783Z,97511.17
2018-09-27T05:42:40.392Z,97512.06
2018-09-27T05:45:09.003Z,97511.55
2018-09-27T05:47:37.563Z,97505.67
2018-09-27T05:50:07.185Z,97508.05
2018-09-27T05:52:35.834Z,97503.90
2018-09-27T05:55:04.458Z,97504.41
2018-09-27T05:57:33.046Z,97505.02
2018-09-27T06:00:01.568Z,97500.69
2018-09-27T06:02:30.792Z,97498.36
2018-09-27T06:05:00.560Z,97509.05
2018-09-27T06:07:29.120Z,97510.79
2018-09-27T06:09:57.699Z,97508.93
2018-09-27T06:12:27.300Z,97511.70
2018-09-27T06:14:55.848Z,97512.72
2018-09-27T06:17:24.380Z,97512.43
2018-09-27T06:19:53.029Z,97519.09
2018-09-27T06:22:21.521Z,97523.92
2018-09-27T06:24:50.088Z,97521.23
2018-09-27T06:27:18.620Z,97526.20
2018-09-27T06:29:47.159Z,97515.67
2018-09-27T06:32:15.765Z,97513.26
2018-09-27T06:34:44.871Z,97520.64
2018-09-27T06:37:13.438Z,97519.63
2018-09-27T06:39:41.973Z,97513.64
2018-09-27T06:42:10.535Z,97513.02
2018-09-27T06:44:39.111Z,97517.53
2018-09-27T06:47:07.756Z,97513.95
2018-09-27T06:49:36.293Z,97515.67
2018-09-27T06:52:04.864Z,97516.18
2018-09-27T06:54:33.504Z,97509.69
2018-09-27T06:57:02.036Z,97510.13
2018-09-27T06:59:30.595Z,97506.70
2018-09-27T07:01:59.168Z,97505.00
2018-09-27T07:04:27.732Z,97504.23
2018-09-27T07:06:56.260Z,97504.03
2018-09-27T07:09:24.784Z,97503.94
2018-09-27T07:11:53.329Z,97501.28
2018-09-27T07:14:21.917Z,97505.09
2018-09-27T07:16:50.436Z,97507.27
2018-09-27T08:26:21.259Z,97508.44
2018-09-27T08:28:49.784Z,97503.52
2018-09-27T08:31:18.409Z,97497.45
2018-09-27T08:33:46.931Z,97495.48
2018-09-27T08:36:15.484Z,97496.17
2018-09-27T08:38:44.118Z,97488.64
2018-09-27T08:41:12.765Z,97478.78
2018-09-27T08:43:41.361Z,97479.95
2018-09-27T08:46:09.928Z,97478.75
2018-09-27T08:51:28.677Z,97481.84
2018-09-27T08:53:58.153Z,97488.18
2018-09-27T08:59:16.904Z,97479.24
2018-09-27T09:01:45.427Z,97471.45
2018-09-27T09:04:13.991Z,97468.67
2018-09-27T09:06:42.537Z,97460.88
2018-09-27T09:09:12.835Z,97465.91
2018-09-27T09:11:41.457Z,97464.84
2018-09-27T09:14:11.023Z,97465.91
2018-09-27T09:16:39.575Z,97457.84
2018-09-27T09:19:08.106Z,97456.66
2018-09-27T09:21:36.697Z,97443.94
2018-09-27T09:24:06.150Z,97451.58
2018-09-27T09:26:34.678Z,97455.34
2018-09-27T09:29:03.197Z,97442.79
2018-09-27T09:31:31.728Z,97435.55
2018-09-27T09:34:00.271Z,97432.50
2018-09-27T09:36:28.857Z,97437.58
2018-09-27T09:38:57.391Z,97433.66
2018-09-27T09:41:25.916Z,97433.17
2018-09-27T09:43:54.491Z,97437.22
2018-09-27T09:46:23.068Z,97437.30
2018-09-27T09:48:51.601Z,97430.81
2018-09-27T09:51:20.667Z,97426.00
2018-09-27T09:53:49.181Z,97425.69
2018-09-27T09:56:17.788Z,97425.34
2018-09-27T09:58:46.319Z,97422.41
2018-09-27T10:01:14.873Z,97421.16
2018-09-27T10:03:43.469Z,97426.47
2018-09-27T10:06:12.380Z,97435.14
2018-09-27T10:08:41.057Z,97427.19
2018-09-27T10:11:09.630Z,97420.77
2018-09-27T10:13:38.172Z,97422.64
2018-09-27T10:16:06.723Z,97421.91
2018-09-27T10:18:35.256Z,97424.03
2018-09-27T10:21:10.089Z,97417.16
2018-09-27T10:23:43.247Z,97425.28
2018-09-27T10:26:11.808Z,97416.72
2018-09-27T10:28:40.376Z,97417.36
2018-09-27T10:31:09.077Z,97417.50
2018-09-27T10:33:37.645Z,97413.72
2018-09-27T10:36:06.182Z,97407.61
2018-09-27T10:38:34.809Z,97406.18
2018-09-27T10:41:03.404Z,97395.59
2018-09-27T10:43:31.932Z,97393.03
2018-09-27T10:46:00.480Z,97394.37
2018-09-27T10:48:29.361Z,97393.41
2018-09-27T10:50:57.900Z,97395.17
2018-09-27T10:53:26.556Z,97393.23
2018-09-27T10:55:55.154Z,97390.62
2018-09-27T10:58:24.016Z,97391.09
2018-09-27T11:00:52.597Z,97387.30
2018-09-27T11:03:21.183Z,97383.53
2018-09-27T11:05:49.759Z,97374.21
2018-09-27T11:08:18.323Z,97372.45
2018-09-27T11:10:46.844Z,97372.44
2018-09-27T11:13:15.522Z,97369.35
2018-09-27T11:15:44.119Z,97367.59
2018-09-27T11:18:12.683Z,97364.83
2018-09-27T11:20:41.227Z,97352.38
2018-09-27T11:23:09.765Z,97353.18
2018-09-27T11:25:38.296Z,97348.16
2018-09-27T11:28:06.963Z,97351.58
2018-09-27T11:30:35.905Z,97343.84
2018-09-27T11:33:04.621Z,97342.86
2018-09-27T11:35:33.260Z,97337.21
2018-09-27T11:38:01.820Z,97339.69
2018-09-27T11:40:30.405Z,97330.02
2018-09-27T11:42:59.077Z,97327.59
2018-09-27T11:45:27.633Z,97321.25
2018-09-27T11:47:56.264Z,97312.92
2018-09-27T11:50:24.806Z,97306.68
2018-09-27T11:52:53.386Z,97308.65
2018-09-27T11:55:22.716Z,97302.92
2018-09-27T11:57:51.250Z,97297.17
2018-09-27T12:00:19.868Z,97298.92
2018-09-27T12:02:48.410Z,97289.48
2018-09-27T12:05:17.910Z,97288.70
2018-09-27T12:07:46.435Z,97288.63
2018-09-27T12:10:14.988Z,97279.27
2018-09-27T12:12:43.797Z,97281.03
2018-09-27T12:15:12.763Z,97269.38
2018-09-27T12:17:41.392Z,97267.31
2018-09-27T12:20:09.977Z,97263.85
2018-09-27T12:22:38.529Z,97262.30
2018-09-27T12:25:07.089Z,97260.20
2018-09-27T12:27:35.656Z,97260.56
2018-09-27T12:30:04.323Z,97258.97
2018-09-27T12:32:32.849Z,97251.28
2018-09-27T12:35:01.389Z,97256.95
2018-09-27T12:37:29.959Z,97245.09
2018-09-27T12:39:58.510Z,97248.20
2018-09-27T12:42:27.154Z,97245.41
2018-09-27T12:44:55.713Z,97244.34
2018-09-27T12:47:24.291Z,97239.02
2018-09-27T12:49:52.885Z,97236.75
2018-09-27T12:52:21.545Z,97234.31
2018-09-27T12:54:49.999Z,97228.63
2018-09-27T12:57:18.574Z,97226.99
2018-09-27T12:59:47.108Z,97223.14
2018-09-27T13:02:15.846Z,97213.08
2018-09-27T13:04:44.332Z,97211.71
2018-09-27T13:07:12.936Z,97206.53
2018-09-27T13:09:41.969Z,97206.05
2018-09-27T13:12:10.695Z,97208.05
2018-09-27T13:14:39.254Z,97198.51
2018-09-27T13:17:08.115Z,97197.64
2018-09-27T13:19:36.764Z,97193.55
2018-09-27T13:22:05.296Z,97188.77
2018-09-27T13:24:33.917Z,97187.84
2018-09-27T13:27:02.491Z,97190.59
2018-09-27T13:29:31.044Z,97177.27
2018-09-27T13:31:59.626Z,97184.41
2018-09-27T13:34:28.280Z,97176.36
2018-09-27T13:36:56.894Z,97169.72
2018-09-27T13:39:25.488Z,97166.00
2018-09-27T13:41:54.119Z,97160.27
2018-09-27T13:44:22.828Z,97152.28
2018-09-27T13:46:51.364Z,97151.67
2018-09-27T13:49:20.096Z,97145.88
2018-09-27T13:51:48.682Z,97147.58
2018-09-27T13:54:17.232Z,97134.35
2018-09-27T13:56:45.813Z,97137.16
2018-09-27T13:59:14.840Z,97134.60
2018-09-27T14:01:43.366Z,97131.48
2018-09-27T14:04:11.993Z,97132.11
2018-09-27T14:06:40.619Z,97139.55
2018-09-27T14:09:12.319Z,97135.13
2018-09-27T14:11:42.123Z,97126.91
2018-09-27T14:14:10.651Z,97126.53
2018-09-27T14:16:39.281Z,97120.44
2018-09-27T14:19:08.130Z,97115.74
2018-09-27T14:21:36.892Z,97112.59
2018-09-27T14:24:05.430Z,97110.89
2018-09-27T14:26:33.992Z,97104.67
2018-09-27T14:29:02.556Z,97100.00
2018-09-27T14:31:31.538Z,97102.36
2018-09-27T14:34:00.065Z,97094.94
2018-09-27T14:36:28.657Z,97091.64
2018-09-27T14:38:57.198Z,97091.34
2018-09-27T14:41:25.753Z,97095.77
2018-09-27T14:43:54.280Z,97092.86
2018-09-27T14:46:22.899Z,97090.89
2018-09-27T14:48:51.420Z,97088.16
2018-09-27T14:51:20.047Z,97089.21
2018-09-27T14:53:48.580Z,97091.61
2018-09-27T14:56:17.192Z,97082.95
2018-09-27T14:58:45.750Z,97088.64
2018-09-27T15:01:14.295Z,97080.03
2018-09-27T15:03:42.894Z,97075.82
2018-09-27T15:06:11.513Z,97074.17
2018-09-27T15:08:40.080Z,97073.38
2018-09-27T15:11:08.672Z,97068.16
2018-09-27T15:13:37.224Z,97067.16
2018-09-27T15:16:05.768Z,97067.02
2018-09-27T15:18:34.333Z,97064.48
2018-09-27T15:21:02.936Z,97067.68
2018-09-27T15:23:31.521Z,97062.72
2018-09-27T15:26:00.292Z,97059.19
2018-09-27T15:28:28.847Z,97050.91
2018-09-27T15:30:57.419Z,97054.91
2018-09-27T15:33:25.984Z,97054.10
2018-09-27T15:35:54.688Z,97060.92
2018-09-27T15:38:24.026Z,97056.44
2018-09-27T15:40:52.596Z,97048.47
2018-09-27T15:43:21.179Z,97051.73
2018-09-27T15:45:49.812Z,97048.06
2018-09-27T15:48:18.394Z,97047.81
2018-09-27T15:50:46.913Z,97043.27
2018-09-27T15:53:15.476Z,97040.00
2018-09-27T15:55:44.024Z,97038.30
2018-09-27T15:58:12.666Z,97031.60
2018-09-27T16:00:41.211Z,97029.55
2018-09-27T16:03:09.827Z,97030.16
2018-09-27T16:05:38.396Z,97030.91
2018-09-27T16:08:06.973Z,97026.75
2018-09-27T16:10:35.797Z,97024.17
2018-09-27T16:13:04.395Z,97018.81
2018-09-27T16:15:32.921Z,97025.02
2018-09-27T16:27:10.547Z,97013.72
2018-09-27T16:29:39.222Z,97012.57
2018-09-27T16:32:07.845Z,97007.56
2018-09-27T16:34:36.683Z,97007.19
2018-09-27T16:37:05.756Z,97000.30
2018-09-27T16:39:34.926Z,97001.20
2018-09-27T16:42:03.570Z,97006.93
2018-09-27T16:44:32.200Z,96995.77
2018-09-27T16:47:00.936Z,97001.59
2018-09-27T16:49:29.744Z,97001.02
2018-09-27T16:51:58.344Z,97001.34
2018-09-27T16:54:27.012Z,96992.63
2018-09-27T17:33:29.657Z,96979.25
2018-09-27T17:35:58.258Z,96971.30
2018-09-27T17:38:27.232Z,96972.34
2018-09-27T17:40:55.815Z,96974.54
2018-09-27T17:43:24.493Z,96978.28
2018-09-27T17:45:53.269Z,96983.11
2018-09-27T17:48:21.788Z,96977.45
2018-09-27T17:50:50.407Z,96976.44
2018-09-27T17:53:19.023Z,96975.97
2018-09-27T17:55:47.576Z,96979.67
2018-09-27T17:58:16.110Z,96980.61
2018-09-27T18:00:44.941Z,96976.40
2018-09-27T18:03:13.523Z,96970.68
2018-09-27T18:05:42.559Z,96967.05
2018-09-27T18:08:11.371Z,96972.75
2018-09-27T18:10:40.011Z,96970.11
2018-09-27T18:13:08.746Z,96971.41
2018-09-27T18:15:37.731Z,96978.76
2018-09-27T18:18:06.311Z,96973.91
2018-09-27T18:20:34.920Z,96970.30
2018-09-27T18:23:03.538Z,96969.20
2018-09-27T18:25:32.275Z,96969.52
2018-09-27T18:28:00.915Z,96971.23
2018-09-27T18:30:30.564Z,96969.39
2018-09-27T18:32:59.129Z,96969.98
2018-09-27T18:35:27.677Z,96965.98
2018-09-27T18:37:56.304Z,96969.66
2018-09-27T18:40:24.816Z,96969.47
2018-09-27T18:42:53.429Z,96964.94
2018-09-27T18:45:22.000Z,96960.13
2018-09-27T18:47:50.536Z,96963.88
2018-09-27T18:50:19.075Z,96958.65
2018-09-27T18:52:48.505Z,96950.29
2018-09-27T18:55:17.082Z,96943.13
2018-09-27T18:57:45.657Z,96949.17
2018-09-27T19:00:14.621Z,96945.91
2018-09-27T19:02:49.694Z,96941.73
2018-09-27T19:05:18.255Z,96938.42
2018-09-27T19:07:46.883Z,96941.34
2018-09-27T19:10:15.429Z,96937.03
2018-09-27T19:12:44.070Z,96930.27
2018-09-27T19:15:13.015Z,96936.66
2018-09-27T19:17:41.677Z,96937.26
2018-09-27T19:20:10.239Z,96934.41
2018-09-27T19:22:38.881Z,96931.11
2018-09-27T19:25:07.496Z,96925.30
2018-09-27T19:27:36.223Z,96925.89
2018-09-27T19:30:04.948Z,96929.94
2018-09-27T19:32:33.471Z,96927.61
2018-09-27T19:35:02.462Z,96938.13
2018-09-27T19:37:31.115Z,96932.80
2018-09-27T19:40:00.671Z,96929.06
2018-09-27T19:42:29.231Z,96924.03
2018-09-27T19:44:57.758Z,96921.03
2018-09-27T19:47:26.368Z,96915.39
2018-09-27T19:49:54.944Z,96911.52
2018-09-27T19:52:23.608Z,96913.14
2018-09-27T19:54:52.271Z,96914.69
2018-09-27T19:57:20.900Z,96913.45
2018-09-27T19:59:50.444Z,96911.24
2018-09-27T20:02:19.846Z,96902.23
2018-09-27T20:04:48.412Z,96901.95
2018-09-27T20:07:17.017Z,96898.94
2018-09-27T20:09:45.622Z,96901.70
2018-09-27T20:12:14.208Z,96899.24
2018-09-27T20:14:42.769Z,96893.06
2018-09-27T20:17:11.330Z,96897.97
2018-09-27T20:19:39.864Z,96895.64
2018-09-27T20:22:09.712Z,96895.86
2018-09-27T20:24:38.403Z,96888.63
2018-09-27T20:27:07.301Z,96896.27
2018-09-27T20:29:35.909Z,96887.84
2018-09-27T20:32:04.716Z,96884.31
2018-09-27T20:34:34.060Z,96880.81
2018-09-27T20:37:02.711Z,96876.58
2018-09-27T20:39:31.282Z,96878.91
2018-09-27T20:41:59.817Z,96873.89
2018-09-27T20:44:28.492Z,96871.69
2018-09-27T20:46:57.070Z,96868.73
2018-09-27T20:49:25.628Z,96864.78
2018-09-27T20:51:54.176Z,96862.88
2018-09-27T20:54:22.743Z,96857.97
2018-09-27T20:56:51.321Z,96851.20
2018-09-27T20:59:19.889Z,96850.49
2018-09-27T21:01:48.542Z,96849.58
2018-09-27T21:04:17.376Z,96847.70
2018-09-27T21:06:46.032Z,96844.55
2018-09-27T21:09:14.990Z,96843.96
2018-09-27T21:11:43.763Z,96838.81
2018-09-27T21:14:12.707Z,96836.02
2018-09-27T21:16:41.583Z,96828.66
2018-09-27T21:19:10.519Z,96825.94
2018-09-27T21:21:40.121Z,96822.09
2018-09-27T21:24:09.741Z,96814.16
2018-09-27T21:26:38.326Z,96807.71
2018-09-27T21:29:07.874Z,96803.60
2018-09-27T21:31:36.432Z,96792.61
2018-09-27T21:34:05.334Z,96800.44
2018-09-27T21:36:33.888Z,96792.52
2018-09-27T21:39:02.923Z,96794.50
2018-09-27T21:41:31.674Z,96788.89
2018-09-27T21:44:00.258Z,96786.19
2018-09-27T21:46:28.812Z,96785.02
2018-09-27T21:48:57.363Z,96782.09
2018-09-27T21:51:25.918Z,96783.49
2018-09-27T21:53:54.448Z,96777.87
2018-09-27T21:56:23.048Z,96772.84
2018-09-27T21:58:51.592Z,96777.52
2018-09-27T22:01:20.132Z,96771.09
2018-09-27T22:03:48.696Z,96772.37
2018-09-27T22:06:17.280Z,96769.23
2018-09-27T22:08:45.813Z,96765.34
2018-09-27T22:11:14.437Z,96766.31
2018-09-27T22:13:42.979Z,96769.00
2018-09-27T22:16:11.547Z,96766.53
2018-09-27T22:27:48.947Z,96749.09
2018-09-27T22:30:17.551Z,96745.36
2018-09-27T22:32:46.120Z,96734.03
2018-09-27T22:35:14.704Z,96735.66
2018-09-27T22:37:43.331Z,96734.96
2018-09-27T22:40:11.920Z,96733.80
2018-09-27T22:42:41.391Z,96729.94
2018-09-27T22:45:10.691Z,96727.70
2018-09-27T22:47:39.321Z,96729.48
2018-09-27T22:50:07.950Z,96722.68
2018-09-27T22:52:36.732Z,96719.19
2018-09-27T22:55:05.521Z,96723.51
2018-09-27T22:57:34.984Z,96721.63
2018-09-27T23:00:03.647Z,96717.78
2018-09-27T23:02:32.176Z,96721.73
2018-09-27T23:05:00.683Z,96711.48
2018-09-27T23:07:29.579Z,96713.64
2018-09-27T23:09:58.207Z,96705.03
2018-09-27T23:12:26.747Z,96697.56
2018-09-27T23:14:55.261Z,96703.11
2018-09-27T23:17:23.824Z,96701.50
2018-09-27T23:19:52.344Z,96697.52
2018-09-27T23:22:20.884Z,96692.73
2018-09-27T23:24:49.443Z,96696.22
2018-09-27T23:27:18.001Z,96691.80
2018-09-27T23:29:46.561Z,96685.14
2018-09-27T23:32:15.180Z,96687.02
2018-09-27T23:34:43.725Z,96686.16
2018-09-27T23:37:12.303Z,96678.81
2018-09-27T23:39:44.013Z,96679.50
2018-09-27T23:42:12.590Z,96673.78
2018-09-27T23:44:41.127Z,96669.69
2018-09-27T23:47:09.700Z,96667.12
2018-09-27T23:49:38.296Z,96670.52
2018-09-27T23:52:06.957Z,96670.64
2018-09-27T23:54:35.811Z,96666.06
2018-09-27T23:57:04.452Z,96656.84
2018-09-27T23:59:32.993Z,96649.36
